Time;durP1;ratioP1;P1;durP2;ratioP2;P2;SDS_P1;SDS_P2;PMS_P1;PMS_P2;Temp;Humidity;BMP_temperature;BMP_pressure;BME280_temperature;BME280_humidity;BME280_pressure;Samples;Min_cycle;Max_cycle;Signal;HPM_P1;HPM_P2
2021/06/01 00:01:15;;;;;;;4.40;3.05;;;8.40;99.90;;;;;;5032642;28;20112;-52
2021/06/01 00:03:41;;;;;;;5.72;2.63;;;8.30;99.90;;;;;;5032711;28;20029;-54
2021/06/01 00:06:06;;;;;;;3.15;2.38;;;8.30;99.90;;;;;;5031940;28;20079;-53
2021/06/01 00:08:33;;;;;;;2.97;2.10;;;8.30;99.90;;;;;;5032705;28;20034;-53
2021/06/01 00:10:59;;;;;;;5.47;3.47;;;8.20;99.90;;;;;;5032812;28;20061;-51
2021/06/01 00:13:24;;;;;;;5.20;3.78;;;8.20;99.90;;;;;;5032655;28;20053;-54
2021/06/01 00:15:50;;;;;;;5.93;4.25;;;8.20;99.90;;;;;;5032406;28;20064;-54
2021/06/01 00:18:15;;;;;;;4.95;3.47;;;8.20;99.90;;;;;;5030677;28;20029;-50
2021/06/01 00:20:41;;;;;;;6.35;3.75;;;8.20;99.90;;;;;;5031585;28;20037;-49
2021/06/01 00:23:06;;;;;;;5.25;3.75;;;8.20;99.90;;;;;;5032583;28;20025;-56
2021/06/01 00:25:32;;;;;;;4.88;3.13;;;8.20;99.90;;;;;;5032499;28;20600;-50
2021/06/01 00:27:57;;;;;;;5.53;3.45;;;8.20;99.90;;;;;;5032452;28;20064;-50
2021/06/01 00:30:23;;;;;;;6.63;3.38;;;8.20;99.90;;;;;;5032255;28;20038;-51
2021/06/01 00:32:48;;;;;;;4.45;3.25;;;8.20;99.90;;;;;;5032318;28;20755;-55
2021/06/01 00:35:14;;;;;;;5.38;3.83;;;8.10;99.90;;;;;;5031523;28;20022;-52
2021/06/01 00:37:40;;;;;;;4.45;3.28;;;8.10;99.90;;;;;;5032309;28;20044;-52
2021/06/01 00:40:06;;;;;;;5.22;3.30;;;8.10;99.90;;;;;;5032480;28;20487;-52
2021/06/01 00:42:32;;;;;;;7.63;4.07;;;8.20;99.90;;;;;;5032297;28;20098;-53
2021/06/01 00:44:57;;;;;;;5.85;3.65;;;8.20;99.90;;;;;;5030973;28;20108;-54
2021/06/01 00:47:22;;;;;;;4.70;3.83;;;8.20;99.90;;;;;;5032240;28;20034;-53
2021/06/01 00:49:48;;;;;;;5.32;4.10;;;8.10;99.90;;;;;;5031493;28;20038;-55
2021/06/01 00:52:14;;;;;;;4.40;3.47;;;8.10;99.90;;;;;;5032241;28;20033;-55
2021/06/01 00:54:40;;;;;;;6.57;4.13;;;8.10;99.90;;;;;;5032267;28;20338;-50
2021/06/01 00:57:06;;;;;;;4.15;3.08;;;8.10;99.90;;;;;;5032326;28;20025;-52
2021/06/01 00:59:33;;;;;;;6.07;3.67;;;8.10;99.90;;;;;;5031963;28;20096;-55
2021/06/01 01:01:58;;;;;;;5.75;3.67;;;8.10;99.90;;;;;;5032182;28;20109;-49
2021/06/01 01:04:25;;;;;;;4.68;3.50;;;8.00;99.90;;;;;;5031881;28;20477;-55
2021/06/01 01:07:17;;;;;;;6.47;3.85;;;8.00;99.90;;;;;;5031759;28;20354;-51
2021/06/01 01:09:44;;;;;;;7.40;3.80;;;8.00;99.90;;;;;;5032103;28;20026;-52
2021/06/01 01:12:52;;;;;;;4.88;3.40;;;8.00;99.90;;;;;;5032173;28;20021;-54
2021/06/01 01:15:22;;;;;;;7.38;3.55;;;8.00;99.90;;;;;;5032085;28;20512;-53
2021/06/01 01:17:51;;;;;;;6.85;3.05;;;7.90;99.90;;;;;;5031752;28;20030;-56
2021/06/01 01:20:32;;;;;;;5.28;3.78;;;8.00;99.90;;;;;;5031038;28;20025;-54
2021/06/01 01:23:02;;;;;;;8.60;4.13;;;8.00;99.90;;;;;;5031974;28;20507;-53
2021/06/01 01:26:01;;;;;;;6.65;3.70;;;7.90;99.90;;;;;;5031996;28;20535;-56
2021/06/01 01:28:31;;;;;;;5.20;3.80;;;7.90;99.90;;;;;;5031884;28;20025;-55
2021/06/01 01:31:02;;;;;;;4.85;3.30;;;7.90;99.90;;;;;;5028654;28;20034;-52
2021/06/01 01:33:34;;;;;;;5.55;3.65;;;7.90;99.90;;;;;;5031558;28;20438;-53
2021/06/01 01:36:04;;;;;;;6.13;3.97;;;7.90;99.90;;;;;;5036440;28;20080;-55
2021/06/01 01:38:31;;;;;;;5.78;4.15;;;7.90;99.90;;;;;;5030883;28;20033;-54
2021/06/01 01:41:04;;;;;;;6.00;4.13;;;7.80;99.90;;;;;;5043341;28;20024;-55
2021/06/01 01:43:33;;;;;;;5.40;4.03;;;7.80;99.90;;;;;;5053537;28;20086;-54
2021/06/01 01:46:12;;;;;;;6.10;4.25;;;7.80;99.90;;;;;;5053249;28;20044;-52
2021/06/01 01:51:25;;;;;;;3.70;2.75;;;7.80;99.90;;;;;;5052710;28;20044;-54
2021/06/01 01:53:56;;;;;;;5.15;3.60;;;7.70;99.90;;;;;;5053915;28;20037;-51
2021/06/01 01:56:28;;;;;;;6.13;4.47;;;7.70;99.90;;;;;;5054070;28;20040;-53
2021/06/01 01:58:54;;;;;;;6.43;4.53;;;7.70;99.90;;;;;;5051296;28;20095;-51
2021/06/01 02:01:22;;;;;;;5.30;3.83;;;7.70;99.90;;;;;;5034156;28;20388;-54
2021/06/01 02:03:48;;;;;;;5.72;4.15;;;7.70;99.90;;;;;;5035693;28;20025;-52
2021/06/01 02:06:13;;;;;;;6.22;3.75;;;7.70;99.90;;;;;;5043444;28;20029;-51
2021/06/01 02:08:41;;;;;;;5.72;4.15;;;7.60;99.90;;;;;;5041610;28;20021;-52
2021/06/01 02:11:07;;;;;;;6.35;4.07;;;7.70;99.90;;;;;;5034014;28;20047;-55
2021/06/01 02:13:41;;;;;;;6.35;4.07;;;7.60;99.90;;;;;;5033951;28;20030;-52
2021/06/01 02:16:07;;;;;;;4.53;3.55;;;7.60;99.90;;;;;;5033926;28;20116;-49
2021/06/01 02:18:33;;;;;;;7.20;4.82;;;7.60;99.90;;;;;;5038351;28;20479;-52
2021/06/01 02:20:59;;;;;;;6.15;4.13;;;7.60;99.90;;;;;;5052570;28;20040;-52
2021/06/01 02:23:49;;;;;;;6.78;4.28;;;7.60;99.90;;;;;;5053427;28;20070;-48
2021/06/01 02:26:40;;;;;;;5.97;3.50;;;7.60;99.90;;;;;;5053470;28;20017;-53
2021/06/01 02:29:12;;;;;;;5.25;3.17;;;7.50;99.90;;;;;;5053251;28;20408;-53
2021/06/01 02:31:46;;;;;;;3.67;3.00;;;7.50;99.90;;;;;;5053471;28;20075;-50
2021/06/01 02:34:13;;;;;;;5.43;3.25;;;7.50;99.90;;;;;;5053211;28;20081;-55
2021/06/01 02:36:42;;;;;;;5.72;3.10;;;7.50;99.90;;;;;;5028009;28;20034;-51
2021/06/01 02:39:09;;;;;;;5.82;3.50;;;7.40;99.90;;;;;;5033110;28;20036;-50
2021/06/01 02:41:34;;;;;;;5.07;4.15;;;7.40;99.90;;;;;;5032927;28;20029;-49
2021/06/01 02:44:01;;;;;;;7.60;3.67;;;7.40;99.90;;;;;;5033133;28;20053;-53
2021/06/01 02:46:26;;;;;;;5.90;3.88;;;7.40;99.90;;;;;;5033262;28;20021;-52
2021/06/01 02:48:54;;;;;;;5.05;3.33;;;7.40;99.90;;;;;;5033037;28;20018;-51
2021/06/01 02:51:20;;;;;;;6.22;3.72;;;7.40;99.90;;;;;;5032239;28;20083;-54
2021/06/01 02:53:50;;;;;;;5.63;3.60;;;7.40;99.90;;;;;;5033010;28;20027;-54
2021/06/01 02:56:17;;;;;;;4.97;3.33;;;7.40;99.90;;;;;;5033105;28;20038;-52
2021/06/01 02:58:44;;;;;;;3.38;2.85;;;7.40;99.90;;;;;;5033202;28;20053;-50
2021/06/01 03:01:14;;;;;;;4.90;3.30;;;7.40;99.90;;;;;;5033140;28;20520;-51
2021/06/01 03:03:48;;;;;;;5.63;2.92;;;7.40;99.90;;;;;;5033027;28;20281;-51
2021/06/01 03:06:19;;;;;;;6.20;4.03;;;7.40;99.90;;;;;;5037783;28;20066;-51
2021/06/01 03:08:45;;;;;;;6.30;3.58;;;7.40;99.90;;;;;;5033403;28;20379;-53
2021/06/01 03:11:14;;;;;;;6.60;4.03;;;7.40;99.90;;;;;;5035416;28;20029;-52
2021/06/01 03:13:39;;;;;;;5.68;3.45;;;7.40;99.90;;;;;;5032830;28;20029;-51
2021/06/01 03:16:05;;;;;;;4.45;3.03;;;7.40;99.90;;;;;;5032602;28;20103;-54
2021/06/01 03:18:31;;;;;;;5.40;3.17;;;7.40;99.90;;;;;;5032556;28;20177;-53
2021/06/01 03:20:57;;;;;;;6.90;3.40;;;7.50;99.90;;;;;;5031566;28;20358;-52
2021/06/01 03:23:23;;;;;;;3.85;2.90;;;7.50;99.90;;;;;;5032465;28;20441;-52
2021/06/01 03:25:49;;;;;;;6.72;3.50;;;7.50;99.90;;;;;;5032285;28;20056;-53
2021/06/01 03:28:16;;;;;;;5.57;3.08;;;7.60;99.90;;;;;;5032364;28;20109;-50
2021/06/01 03:30:42;;;;;;;4.40;3.08;;;7.60;99.90;;;;;;5030251;28;20053;-51
2021/06/01 03:33:07;;;;;;;5.13;3.40;;;7.70;99.90;;;;;;5032407;28;20030;-54
2021/06/01 03:35:33;;;;;;;3.20;2.90;;;7.80;99.90;;;;;;5029750;28;20025;-50
2021/06/01 03:37:59;;;;;;;3.88;3.13;;;7.90;99.90;;;;;;5032207;28;20025;-53
2021/06/01 03:40:24;;;;;;;4.20;3.00;;;8.10;99.90;;;;;;5032022;28;20025;-53
2021/06/01 03:42:51;;;;;;;4.10;3.10;;;8.20;99.90;;;;;;5032339;28;20028;-53
2021/06/01 03:45:19;;;;;;;5.10;2.92;;;8.40;99.90;;;;;;5031953;28;20077;-51
2021/06/01 03:47:45;;;;;;;4.97;3.30;;;8.60;99.90;;;;;;5032258;28;20487;-54
2021/06/01 03:50:11;;;;;;;4.55;3.28;;;8.70;99.90;;;;;;5030841;28;20381;-51
2021/06/01 03:52:36;;;;;;;5.60;2.75;;;8.80;99.90;;;;;;5049239;28;20039;-54
2021/06/01 03:55:03;;;;;;;4.03;2.85;;;8.90;99.90;;;;;;5051168;28;20029;-49
2021/06/01 03:57:28;;;;;;;5.10;3.30;;;9.10;99.90;;;;;;5051619;28;20025;-53
2021/06/01 03:59:55;;;;;;;4.80;3.47;;;9.30;99.90;;;;;;5051729;28;20104;-54
2021/06/01 04:02:21;;;;;;;4.07;3.13;;;9.50;99.90;;;;;;5051538;28;20368;-52
2021/06/01 04:04:46;;;;;;;5.20;3.63;;;9.60;99.90;;;;;;5050771;28;20033;-54
2021/06/01 04:07:12;;;;;;;6.90;3.10;;;9.80;99.90;;;;;;5051722;28;20107;-51
2021/06/01 04:09:38;;;;;;;3.53;3.00;;;9.90;99.90;;;;;;5050168;28;20025;-52
2021/06/01 04:12:04;;;;;;;6.80;3.13;;;10.10;99.90;;;;;;5051457;28;20108;-51
2021/06/01 04:14:29;;;;;;;4.70;3.25;;;10.40;99.90;;;;;;5051598;28;20032;-53
2021/06/01 04:16:56;;;;;;;4.53;3.42;;;10.80;99.90;;;;;;5051421;28;20439;-55
2021/06/01 04:19:22;;;;;;;5.20;3.17;;;11.10;99.90;;;;;;5050879;28;20053;-54
2021/06/01 04:21:47;;;;;;;4.03;2.92;;;11.40;99.90;;;;;;5049952;28;20025;-55
2021/06/01 04:24:13;;;;;;;7.95;3.78;;;12.00;99.90;;;;;;5050134;28;20075;-49
2021/06/01 04:26:39;;;;;;;4.18;3.50;;;12.60;99.90;;;;;;5051511;28;20476;-53
2021/06/01 04:29:04;;;;;;;4.35;2.92;;;13.10;99.90;;;;;;5051399;28;20099;-51
2021/06/01 04:31:31;;;;;;;5.13;2.95;;;13.50;99.90;;;;;;5051230;28;20530;-53
2021/06/01 04:33:56;;;;;;;5.68;3.42;;;13.90;99.90;;;;;;5051378;28;20025;-53
2021/06/01 04:36:24;;;;;;;5.30;3.42;;;14.30;98.30;;;;;;5035910;28;20071;-54
2021/06/01 04:38:50;;;;;;;5.78;3.10;;;14.60;96.90;;;;;;5031672;28;20049;-50
2021/06/01 04:41:15;;;;;;;5.25;3.85;;;15.00;95.40;;;;;;5046328;28;20075;-54
2021/06/01 04:43:41;;;;;;;3.80;2.60;;;15.50;94.00;;;;;;5051017;28;20025;-54
2021/06/01 04:46:06;;;;;;;5.15;3.55;;;16.00;92.50;;;;;;5051027;28;20032;-55
2021/06/01 04:48:32;;;;;;;3.83;3.00;;;16.30;91.50;;;;;;5051355;28;20044;-51
2021/06/01 04:50:57;;;;;;;3.53;3.10;;;16.50;90.60;;;;;;5032481;28;20036;-53
2021/06/01 04:53:23;;;;;;;6.88;3.35;;;16.50;90.40;;;;;;5041167;28;20041;-55
2021/06/01 04:55:48;;;;;;;4.45;3.28;;;16.50;90.10;;;;;;5051003;28;20492;-54
2021/06/01 04:58:14;;;;;;;4.35;3.58;;;16.60;90.00;;;;;;5041447;28;20049;-55
2021/06/01 05:00:39;;;;;;;3.60;2.97;;;17.00;89.50;;;;;;5031081;28;20064;-55
2021/06/01 05:03:06;;;;;;;4.32;3.00;;;17.10;88.00;;;;;;5031190;28;20026;-53
2021/06/01 05:05:31;;;;;;;5.18;2.90;;;17.20;86.80;;;;;;5031977;28;20350;-56
2021/06/01 05:07:57;;;;;;;3.85;3.08;;;17.10;86.30;;;;;;5031269;28;20045;-53
2021/06/01 05:10:22;;;;;;;2.97;2.55;;;16.90;86.10;;;;;;5050247;28;20108;-55
2021/06/01 05:12:48;;;;;;;4.35;2.92;;;16.80;86.50;;;;;;5054926;28;20033;-55
2021/06/01 05:15:14;;;;;;;3.33;2.92;;;16.80;86.80;;;;;;5054489;28;20446;-56
2021/06/01 05:17:40;;;;;;;6.13;3.55;;;16.80;86.70;;;;;;5054775;28;20035;-50
2021/06/01 05:20:07;;;;;;;5.10;3.28;;;16.90;86.70;;;;;;5053277;28;20032;-50
2021/06/01 05:22:33;;;;;;;4.60;3.38;;;17.10;86.60;;;;;;5054547;28;20041;-54
2021/06/01 05:24:58;;;;;;;5.63;2.88;;;17.30;85.90;;;;;;5054336;28;20025;-56
2021/06/01 05:27:24;;;;;;;4.60;3.05;;;17.50;85.30;;;;;;5054598;28;20025;-55
2021/06/01 05:29:57;;;;;;;5.78;3.33;;;17.80;84.20;;;;;;5054534;28;20129;-56
2021/06/01 05:35:17;;;;;;;5.28;4.10;;;18.60;82.00;;;;;;5050802;28;20533;-52
2021/06/01 05:37:42;;;;;;;8.20;4.38;;;19.10;80.70;;;;;;5034664;28;20064;-55
2021/06/01 05:40:08;;;;;;;5.53;4.18;;;19.50;80.00;;;;;;5034242;28;20104;-56
2021/06/01 05:42:35;;;;;;;4.53;4.07;;;19.70;78.90;;;;;;5034710;28;20025;-56
2021/06/01 05:45:01;;;;;;;4.88;4.13;;;19.90;78.20;;;;;;5034386;28;20488;-56
2021/06/01 05:47:26;;;;;;;7.00;4.18;;;20.10;77.10;;;;;;5034344;28;20124;-56
2021/06/01 05:49:51;;;;;;;4.43;3.40;;;20.40;76.70;;;;;;5033441;28;20021;-52
2021/06/01 05:52:17;;;;;;;4.35;3.90;;;20.70;75.70;;;;;;5034121;28;20029;-55
2021/06/01 05:54:42;;;;;;;6.15;4.20;;;21.00;74.80;;;;;;5034313;28;20467;-57
2021/06/01 05:57:08;;;;;;;6.90;4.25;;;21.20;74.50;;;;;;5034209;28;20128;-51
2021/06/01 05:59:34;;;;;;;6.35;3.80;;;21.50;73.70;;;;;;5033945;28;20091;-53
2021/06/01 06:01:59;;;;;;;5.97;3.65;;;21.70;72.90;;;;;;5034290;28;20044;-56
2021/06/01 06:04:25;;;;;;;3.67;3.28;;;21.90;72.20;;;;;;5032007;28;20046;-55
2021/06/01 06:06:51;;;;;;;7.05;4.00;;;22.10;71.90;;;;;;5034036;28;20024;-53
2021/06/01 06:09:16;;;;;;;6.30;4.03;;;22.20;71.70;;;;;;5032051;28;20476;-55
2021/06/01 06:11:42;;;;;;;4.50;3.58;;;22.30;71.20;;;;;;5033948;28;20029;-55
2021/06/01 06:14:07;;;;;;;6.47;4.43;;;22.30;70.70;;;;;;5034072;28;20036;-55
2021/06/01 06:16:44;;;;;;;5.07;3.53;;;22.40;70.50;;;;;;5032863;28;20025;-56
2021/06/01 06:19:09;;;;;;;5.68;3.95;;;22.60;68.80;;;;;;5032412;28;20025;-55
2021/06/01 06:21:35;;;;;;;5.68;3.90;;;23.00;69.40;;;;;;5032786;28;20392;-54
2021/06/01 06:24:03;;;;;;;4.70;3.58;;;23.30;68.30;;;;;;5033725;28;20037;-51
2021/06/01 06:26:28;;;;;;;4.97;3.55;;;23.50;67.50;;;;;;5032340;28;20032;-55
2021/06/01 06:28:54;;;;;;;4.55;3.90;;;23.60;67.20;;;;;;5038967;28;20029;-53
2021/06/01 06:31:19;;;;;;;4.53;3.75;;;23.70;67.00;;;;;;5052939;28;20231;-72
2021/06/01 06:33:45;;;;;;;3.70;3.15;;;23.80;66.50;;;;;;5053420;28;20025;-73
2021/06/01 06:36:10;;;;;;;4.22;3.83;;;24.00;66.40;;;;;;5040995;28;20036;-73
2021/06/01 06:38:36;;;;;;;4.57;3.88;;;24.30;65.60;;;;;;5033365;28;20091;-71
2021/06/01 06:41:12;;;;;;;7.20;4.10;;;24.90;64.70;;;;;;5033498;28;20030;-71
2021/06/01 06:43:39;;;;;;;;;;;25.70;63.50;;;;;;5033851;28;20508;-73
2021/06/01 06:46:16;;;;;;;6.40;3.30;;;26.70;58.20;;;;;;5033246;28;19987;-72
2021/06/01 06:48:42;;;;;;;4.85;3.35;;;27.70;60.00;;;;;;5043311;28;20066;-73
2021/06/01 06:51:13;;;;;;;4.18;3.35;;;28.30;59.70;;;;;;5033193;28;20038;-72
2021/06/01 06:53:58;;;;;;;4.47;3.72;;;28.60;58.60;;;;;;5033310;28;20022;-71
2021/06/01 06:56:26;;;;;;;4.68;3.53;;;29.10;58.00;;;;;;5032919;28;20514;-71
2021/06/01 06:58:52;;;;;;;5.40;3.40;;;29.70;57.10;;;;;;5034120;28;20069;-72
2021/06/01 07:01:20;;;;;;;3.33;3.03;;;30.30;56.20;;;;;;5052593;28;20075;-72
2021/06/01 07:03:45;;;;;;;4.05;3.30;;;30.50;55.10;;;;;;5053000;28;20047;-73
2021/06/01 07:06:11;;;;;;;3.25;2.90;;;30.50;55.00;;;;;;5051848;28;20060;-71
2021/06/01 07:08:37;;;;;;;3.78;3.47;;;30.30;54.60;;;;;;5052447;28;20021;-73
2021/06/01 07:11:03;;;;;;;6.68;3.75;;;29.90;54.40;;;;;;5052557;28;20746;-72
2021/06/01 07:13:49;;;;;;;5.47;3.60;;;29.60;54.30;;;;;;5052548;28;20033;-75
2021/06/01 07:16:15;;;;;;;8.02;3.42;;;29.30;52.70;;;;;;5042109;28;20025;-72
2021/06/01 07:18:41;;;;;;;4.13;3.35;;;29.20;54.40;;;;;;5032756;28;20151;-72
2021/06/01 07:21:09;;;;;;;5.35;3.05;;;29.20;54.20;;;;;;5031543;28;20488;-70
2021/06/01 07:23:35;;;;;;;4.85;3.83;;;29.20;53.80;;;;;;5032483;28;20045;-71
2021/06/01 07:26:02;;;;;;;9.07;3.88;;;29.40;53.50;;;;;;5031015;28;20087;-70
2021/06/01 07:28:27;;;;;;;6.68;3.45;;;29.90;52.70;;;;;;5032325;28;20419;-70
2021/06/01 07:30:53;;;;;;;4.53;3.40;;;30.70;51.70;;;;;;5031061;28;20112;-70
2021/06/01 07:33:19;;;;;;;4.10;3.45;;;31.80;50.70;;;;;;5031079;28;20516;-69
2021/06/01 07:35:44;;;;;;;6.78;3.20;;;33.00;49.30;;;;;;5031318;28;20052;-70
2021/06/01 07:38:10;;;;;;;6.18;3.42;;;34.20;47.20;;;;;;5045268;28;20032;-69
2021/06/01 07:40:37;;;;;;;7.85;3.42;;;34.90;46.40;;;;;;5020463;28;20037;-69
2021/06/01 07:43:03;;;;;;;4.35;2.92;;;35.90;45.40;;;;;;5032148;28;20097;-69
2021/06/01 07:45:28;;;;;;;3.70;3.10;;;36.40;44.60;;;;;;5032041;28;20072;-70
2021/06/01 07:47:54;;;;;;;5.32;2.83;;;36.50;44.00;;;;;;5032195;28;20029;-71
2021/06/01 07:50:20;;;;;;;3.55;2.83;;;36.70;43.50;;;;;;5031163;28;20029;-72
2021/06/01 07:52:45;;;;;;;5.78;2.85;;;37.60;42.90;;;;;;5032045;28;20034;-72
2021/06/01 07:55:11;;;;;;;6.65;2.80;;;37.60;42.00;;;;;;5031850;28;20380;-72
2021/06/01 07:57:37;;;;;;;6.05;2.72;;;36.60;41.80;;;;;;5031695;28;20033;-71
2021/06/01 08:00:07;;;;;;;3.20;2.90;;;36.30;42.10;;;;;;5031904;28;20125;-71
2021/06/01 08:02:32;;;;;;;4.07;2.20;;;36.80;41.50;;;;;;5031947;28;20025;-70
2021/06/01 08:04:58;;;;;;;2.78;2.58;;;37.30;41.00;;;;;;5030884;28;20030;-72
2021/06/01 08:07:23;;;;;;;5.93;2.70;;;37.70;40.20;;;;;;5031592;28;20121;-72
2021/06/01 08:09:49;;;;;;;4.43;2.10;;;38.60;39.50;;;;;;5031903;28;20492;-72
2021/06/01 08:12:14;;;;;;;2.90;2.20;;;39.30;38.60;;;;;;5031697;28;20115;-70
2021/06/01 08:14:40;;;;;;;4.15;2.35;;;39.80;37.70;;;;;;5031890;28;20029;-73
2021/06/01 08:17:05;;;;;;;3.08;2.05;;;40.30;37.70;;;;;;5031615;28;20086;-71
2021/06/01 08:19:37;;;;;;;2.95;1.92;;;40.90;36.60;;;;;;5030751;28;20104;-72
2021/06/01 08:24:29;;;;;;;3.13;2.00;;;41.60;35.00;;;;;;5031743;28;20442;-72
2021/06/01 08:26:55;;;;;;;2.55;1.95;;;41.70;34.40;;;;;;5049262;28;20052;-77
2021/06/01 08:29:20;;;;;;;2.30;1.92;;;42.10;34.00;;;;;;5051367;28;20021;-69
2021/06/01 08:31:46;;;;;;;3.70;1.60;;;42.60;33.00;;;;;;5051182;28;20033;-68
2021/06/01 08:34:12;;;;;;;2.70;1.90;;;42.50;32.80;;;;;;5051020;28;20024;-69
2021/06/01 08:36:38;;;;;;;2.17;1.88;;;42.00;32.50;;;;;;5035907;28;20116;-68
2021/06/01 08:39:08;;;;;;;3.03;2.00;;;41.60;32.50;;;;;;5031617;28;20152;-71
2021/06/01 08:41:35;;;;;;;3.03;1.95;;;40.60;32.30;;;;;;5035100;28;20037;-70
2021/06/01 08:44:03;;;;;;;3.90;2.28;;;40.70;33.00;;;;;;5035593;28;20500;-67
2021/06/01 08:46:29;;;;;;;2.33;2.13;;;40.10;32.70;;;;;;5034133;28;20022;-69
2021/06/01 08:48:55;;;;;;;2.60;2.10;;;39.40;32.90;;;;;;5035441;28;20029;-71
2021/06/01 08:51:22;;;;;;;3.70;2.10;;;39.50;33.30;;;;;;5034461;28;20026;-70
2021/06/01 08:53:49;;;;;;;4.88;2.80;;;40.00;33.20;;;;;;5035470;28;20113;-70
2021/06/01 08:56:15;;;;;;;4.35;2.47;;;40.50;32.50;;;;;;5035242;28;20029;-69
2021/06/01 08:58:48;;;;;;;2.75;2.03;;;40.90;32.00;;;;;;5035190;28;20049;-71
2021/06/01 09:01:14;;;;;;;6.38;2.33;;;40.80;32.00;;;;;;5035108;28;20028;-69
2021/06/01 09:03:46;;;;;;;3.20;2.30;;;41.00;32.10;;;;;;5035070;28;20496;-67
2021/06/01 09:22:39;;;;;;;3.80;2.60;;;39.30;31.50;;;;;;5022251;28;20271;-69
2021/06/01 09:25:11;;;;;;;3.28;2.00;;;37.80;30.90;;;;;;5034889;28;20056;-68
2021/06/01 09:27:53;;;;;;;3.45;2.10;;;37.20;32.50;;;;;;5034548;28;20036;-67
2021/06/01 09:30:54;;;;;;;2.03;1.92;;;36.30;32.60;;;;;;5034838;28;20024;-68
2021/06/01 09:33:19;;;;;;;2.33;1.90;;;35.80;32.90;;;;;;5034699;28;20419;-67
2021/06/01 09:35:53;;;;;;;3.80;1.83;;;35.50;33.40;;;;;;5033656;28;20018;-69
2021/06/01 09:38:21;;;;;;;2.13;1.75;;;36.60;33.10;;;;;;5034615;28;20026;-67
2021/06/01 09:40:47;;;;;;;3.97;1.98;;;37.40;32.40;;;;;;5034610;28;20106;-67
2021/06/01 09:43:15;;;;;;;4.95;1.85;;;37.50;31.90;;;;;;5034254;28;20034;-68
2021/06/01 09:45:43;;;;;;;2.67;1.70;;;37.50;31.30;;;;;;5034416;28;20417;-69
2021/06/01 09:48:11;;;;;;;2.15;1.88;;;37.00;31.30;;;;;;5034606;28;20047;-69
2021/06/01 09:51:01;;;;;;;4.20;1.98;;;36.80;31.40;;;;;;5033437;28;20538;-69
2021/06/01 09:53:31;;;;;;;1.90;1.52;;;36.30;31.30;;;;;;5044697;28;20456;-69
2021/06/01 09:55:57;;;;;;;2.88;2.05;;;35.40;31.80;;;;;;5054023;28;20029;-68
2021/06/01 09:58:37;;;;;;;3.03;1.90;;;34.70;32.20;;;;;;5054032;28;20041;-67
2021/06/01 10:01:06;;;;;;;3.88;1.80;;;34.10;32.40;;;;;;5054015;28;20040;-70
2021/06/01 10:03:38;;;;;;;5.03;2.35;;;33.70;32.90;;;;;;5053966;28;20028;-68
2021/06/01 10:06:04;;;;;;;2.53;1.80;;;33.30;33.00;;;;;;5053173;28;20360;-69
2021/06/01 10:08:31;;;;;;;3.70;2.28;;;33.10;33.40;;;;;;5053801;28;20036;-68
2021/06/01 10:11:08;;;;;;;3.92;2.05;;;32.70;33.70;;;;;;5054050;28;20039;-68
2021/06/01 10:13:35;;;;;;;2.85;2.00;;;32.60;34.10;;;;;;5053600;28;20617;-68
2021/06/01 10:16:03;;;;;;;4.82;2.20;;;32.40;34.50;;;;;;5053880;28;20032;-69
2021/06/01 10:18:30;;;;;;;3.30;2.28;;;32.20;34.80;;;;;;5053364;28;20403;-69
2021/06/01 10:21:02;;;;;;;3.90;2.40;;;32.00;35.10;;;;;;5052721;28;20029;-68
2021/06/01 10:23:37;;;;;;;3.13;2.35;;;31.80;35.40;;;;;;5053301;28;20025;-68
2021/06/01 10:26:06;;;;;;;3.95;2.30;;;31.60;35.70;;;;;;5053753;28;20086;-68
2021/06/01 10:28:34;;;;;;;2.53;2.15;;;31.20;36.00;;;;;;5053163;28;20032;-69
2021/06/01 10:31:05;;;;;;;4.85;2.20;;;30.90;36.20;;;;;;5053746;28;20560;-68
2021/06/01 10:33:38;;;;;;;5.53;2.70;;;30.50;36.60;;;;;;5020288;28;20072;-67
2021/06/01 10:50:59;;;;;;;2.88;2.58;;;30.10;38.60;;;;;;5010724;28;20088;-66
2021/06/01 10:53:26;;;;;;;2.90;2.25;;;30.20;37.60;;;;;;5023671;28;20452;-67
2021/06/01 10:55:54;;;;;;;2.40;2.20;;;30.30;37.60;;;;;;5033229;28;20025;-68
2021/06/01 10:58:25;;;;;;;4.38;2.25;;;30.20;37.70;;;;;;5032722;28;20056;-68
2021/06/01 11:03:34;;;;;;;5.55;2.83;;;30.30;38.00;;;;;;5051426;28;20118;-54
2021/06/01 11:06:02;;;;;;;2.78;2.42;;;30.30;38.10;;;;;;5032252;28;20493;-49
2021/06/01 11:08:44;;;;;;;2.40;2.17;;;30.40;38.10;;;;;;5032856;28;20013;-51
2021/06/01 11:11:34;;;;;;;2.50;2.30;;;30.50;38.30;;;;;;5032037;28;20376;-49
2021/06/01 11:14:02;;;;;;;2.22;1.90;;;30.50;37.80;;;;;;5032668;28;20029;-51
2021/06/01 11:16:52;;;;;;;2.35;1.60;;;30.40;36.90;;;;;;5031453;28;20025;-51
2021/06/01 11:19:17;;;;;;;2.42;1.50;;;30.30;35.00;;;;;;5031897;28;20381;-52
2021/06/01 11:22:02;;;;;;;1.88;1.20;;;30.10;35.40;;;;;;5032355;28;20025;-54
2021/06/01 11:33:14;;;;;;;1.90;1.58;;;29.20;33.20;;;;;;5032654;28;20538;-53
2021/06/01 11:35:43;;;;;;;3.10;1.40;;;28.90;33.70;;;;;;5020649;28;20084;-55
2021/06/01 11:39:26;;;;;;;3.22;1.67;;;28.70;33.80;;;;;;5033234;28;20391;-53
2021/06/01 11:43:53;;;;;;;1.42;1.33;;;28.70;35.00;;;;;;5026853;28;20052;-54
2021/06/01 11:46:28;;;;;;;1.67;1.48;;;28.60;34.80;;;;;;5032038;28;20376;-52
2021/06/01 11:51:43;;;;;;;3.75;1.40;;;28.20;34.90;;;;;;5032030;28;20453;-52
2021/06/01 11:54:12;;;;;;;1.88;1.35;;;27.70;34.80;;;;;;5048145;28;20196;-49
2021/06/01 11:57:05;;;;;;;4.07;1.70;;;27.60;35.10;;;;;;5046021;28;20083;-52
2021/06/01 12:19:08;;;;;;;1.42;0.90;;;28.10;34.10;;;;;;5051322;28;20040;-53
2021/06/01 12:22:00;;;;;;;1.48;1.05;;;27.70;34.10;;;;;;5051141;28;20411;-52
2021/06/01 12:24:27;;;;;;;2.30;1.40;;;27.60;34.60;;;;;;5050374;28;20037;-50
2021/06/01 12:27:15;;;;;;;1.65;1.10;;;27.60;34.30;;;;;;5051284;28;20078;-52
2021/06/01 12:32:29;;;;;;;1.60;1.00;;;27.40;34.40;;;;;;5051332;28;20038;-50
2021/06/01 12:43:25;;;;;;;1.00;0.80;;;26.90;33.70;;;;;;5031455;28;19912;-49
2021/06/01 13:20:36;;;;;;;1.55;0.93;;;27.40;33.20;;;;;;5030173;28;20124;-50
2021/06/01 13:37:07;;;;;;;1.48;1.10;;;26.80;33.40;;;;;;5037016;28;20071;-50
2021/06/01 13:39:44;;;;;;;1.67;0.98;;;26.70;33.50;;;;;;5025401;28;20132;-50
2021/06/01 13:47:49;;;;;;;1.45;0.95;;;26.40;33.30;;;;;;5033156;28;20032;-51
2021/06/01 13:50:22;;;;;;;1.23;0.85;;;26.10;34.00;;;;;;5033276;28;20026;-53
2021/06/01 13:53:00;;;;;;;2.60;1.05;;;25.90;33.60;;;;;;5032894;28;20040;-49
2021/06/01 13:55:33;;;;;;;1.80;1.13;;;25.90;33.80;;;;;;5034151;28;20052;-50
2021/06/01 14:01:02;;;;;;;1.00;0.85;;;25.80;33.90;;;;;;5034142;28;20068;-52
2021/06/01 14:20:41;;;;;;;3.15;0.93;;;26.10;33.60;;;;;;5046084;28;20067;-53
2021/06/01 14:31:39;;;;;;;3.08;1.27;;;26.10;35.70;;;;;;5050997;28;20036;-49
2021/06/01 15:04:32;;;;;;;2.72;2.00;;;25.00;43.60;;;;;;5051266;28;20430;-48
2021/06/01 15:24:17;;;;;;;2.58;2.35;;;24.20;45.00;;;;;;5051919;28;20063;-52
2021/06/01 15:31:55;;;;;;;3.72;2.33;;;23.80;46.50;;;;;;5051046;28;20029;-53
2021/06/01 15:50:44;;;;;;;5.68;3.42;;;21.90;55.30;;;;;;5036339;28;20089;-54
2021/06/01 16:22:08;;;;;;;6.18;3.50;;;21.20;57.10;;;;;;5051098;28;20387;-49
2021/06/01 16:30:17;;;;;;;5.22;3.00;;;20.90;58.10;;;;;;5051087;28;20032;-52
2021/06/01 16:43:43;;;;;;;5.30;3.55;;;20.30;61.00;;;;;;5051269;28;20033;-50
2021/06/01 17:11:07;;;;;;;5.47;4.50;;;19.90;68.80;;;;;;5035357;28;20549;-47
2021/06/01 17:13:44;;;;;;;6.95;5.03;;;19.80;67.90;;;;;;5034994;28;20043;-50
2021/06/01 17:16:28;;;;;;;6.13;4.78;;;19.80;69.90;;;;;;5035020;28;20035;-49
2021/06/01 17:35:19;;;;;;;5.40;3.85;;;19.80;68.90;;;;;;5033899;28;20052;-49
2021/06/01 17:37:45;;;;;;;3.58;3.28;;;19.70;69.90;;;;;;5034644;28;20052;-49
2021/06/01 17:40:14;;;;;;;10.00;4.30;;;19.60;69.30;;;;;;5034619;28;20021;-48
2021/06/01 17:42:45;;;;;;;5.97;3.92;;;19.60;70.00;;;;;;5034516;28;20033;-49
2021/06/01 17:45:14;;;;;;;6.05;3.95;;;19.50;70.70;;;;;;5034531;28;20032;-47
2021/06/01 17:47:47;;;;;;;8.60;3.70;;;19.40;71.20;;;;;;5034317;28;20029;-49
2021/06/01 17:50:14;;;;;;;4.85;3.95;;;19.40;71.30;;;;;;5033623;28;20432;-49
2021/06/01 17:52:40;;;;;;;4.45;3.10;;;19.30;72.40;;;;;;5032760;28;20029;-47
2021/06/01 17:55:08;;;;;;;5.40;3.85;;;19.20;71.90;;;;;;5034399;28;20029;-52
2021/06/01 17:57:33;;;;;;;7.05;3.85;;;19.10;72.10;;;;;;5034083;28;20025;-49
2021/06/01 17:59:59;;;;;;;5.25;3.53;;;19.00;73.30;;;;;;5034244;28;20042;-49
2021/06/01 18:02:24;;;;;;;7.45;3.60;;;18.90;72.90;;;;;;5034002;28;20036;-51
2021/06/01 18:04:52;;;;;;;6.20;3.45;;;18.80;74.40;;;;;;5033431;28;20026;-47
2021/06/01 19:01:56;;;;;;;2.70;1.13;;;16.40;69.30;;;;;;5052637;28;20036;-46
2021/06/01 19:51:23;;;;;;;2.47;0.90;;;15.70;69.20;;;;;;5031140;28;20036;-48
2021/06/01 19:53:50;;;;;;;3.55;1.10;;;15.70;68.90;;;;;;5031051;28;20507;-47
2021/06/01 19:56:17;;;;;;;4.65;1.20;;;15.70;68.90;;;;;;5031274;28;20041;-49
2021/06/01 19:58:43;;;;;;;1.13;1.00;;;15.60;68.90;;;;;;5030714;28;20053;-48
2021/06/01 20:01:10;;;;;;;1.13;0.80;;;15.60;68.70;;;;;;5031358;28;20025;-47
2021/06/01 20:03:37;;;;;;;2.00;1.05;;;15.70;68.60;;;;;;5031033;28;20152;-46
2021/06/01 20:06:06;;;;;;;2.10;0.60;;;15.70;68.40;;;;;;5030224;28;20447;-48